sensor_id;sensor_type;location;lat;lon;timestamp;P1;durP1;ratioP1;P2;durP2;ratioP2
59907;SDS011;61804;54.926;73.496;2022-08-05T00:00:58;39.03;;;12.80;;
59907;SDS011;61804;54.926;73.496;2022-08-05T00:03:36;48.30;;;10.45;;
59907;SDS011;61804;54.926;73.496;2022-08-05T00:06:17;28.35;;;9.20;;
59907;SDS011;61804;54.926;73.496;2022-08-05T00:08:49;33.20;;;10.18;;
59907;SDS011;61804;54.926;73.496;2022-08-05T00:11:32;35.10;;;8.05;;
59907;SDS011;61804;54.926;73.496;2022-08-05T00:14:01;30.05;;;8.32;;
59907;SDS011;61804;54.926;73.496;2022-08-05T00:16:32;31.73;;;6.85;;
59907;SDS011;61804;54.926;73.496;2022-08-05T00:19:09;20.35;;;7.88;;
59907;SDS011;61804;54.926;73.496;2022-08-05T00:21:54;21.20;;;6.50;;
59907;SDS011;61804;54.926;73.496;2022-08-05T00:24:35;17.23;;;7.03;;
59907;SDS011;61804;54.926;73.496;2022-08-05T00:27:17;12.85;;;5.70;;
59907;SDS011;61804;54.926;73.496;2022-08-05T00:29:45;16.50;;;4.90;;
59907;SDS011;61804;54.926;73.496;2022-08-05T00:32:33;9.35;;;5.18;;
59907;SDS011;61804;54.926;73.496;2022-08-05T00:35:24;21.27;;;5.90;;
59907;SDS011;61804;54.926;73.496;2022-08-05T00:38:10;38.55;;;8.13;;
59907;SDS011;61804;54.926;73.496;2022-08-05T00:40:49;27.27;;;8.15;;
59907;SDS011;61804;54.926;73.496;2022-08-05T00:43:24;17.15;;;4.18;;
59907;SDS011;61804;54.926;73.496;2022-08-05T00:46:16;11.25;;;5.60;;
59907;SDS011;61804;54.926;73.496;2022-08-05T00:48:43;33.40;;;7.82;;
59907;SDS011;61804;54.926;73.496;2022-08-05T00:51:22;20.75;;;5.75;;
59907;SDS011;61804;54.926;73.496;2022-08-05T00:53:57;15.93;;;4.53;;
59907;SDS011;61804;54.926;73.496;2022-08-05T00:56:28;14.45;;;6.35;;
59907;SDS011;61804;54.926;73.496;2022-08-05T00:58:59;22.55;;;6.03;;
59907;SDS011;61804;54.926;73.496;2022-08-05T01:01:30;18.55;;;5.53;;
59907;SDS011;61804;54.926;73.496;2022-08-05T01:04:10;7.45;;;3.63;;
59907;SDS011;61804;54.926;73.496;2022-08-05T01:06:46;9.10;;;2.97;;
59907;SDS011;61804;54.926;73.496;2022-08-05T01:09:16;5.53;;;3.17;;
59907;SDS011;61804;54.926;73.496;2022-08-05T01:11:57;15.65;;;3.67;;
59907;SDS011;61804;54.926;73.496;2022-08-05T01:14:34;10.40;;;3.72;;
59907;SDS011;61804;54.926;73.496;2022-08-05T01:30:27;9.30;;;2.95;;
59907;SDS011;61804;54.926;73.496;2022-08-05T01:32:58;3.42;;;3.05;;
59907;SDS011;61804;54.926;73.496;2022-08-05T01:35:30;9.02;;;3.22;;
59907;SDS011;61804;54.926;73.496;2022-08-05T01:38:05;6.95;;;3.08;;
59907;SDS011;61804;54.926;73.496;2022-08-05T01:40:37;13.45;;;2.60;;
59907;SDS011;61804;54.926;73.496;2022-08-05T01:43:21;6.00;;;3.28;;
59907;SDS011;61804;54.926;73.496;2022-08-05T01:46:02;28.17;;;6.20;;
59907;SDS011;61804;54.926;73.496;2022-08-05T01:48:42;15.55;;;4.68;;
59907;SDS011;61804;54.926;73.496;2022-08-05T01:51:17;14.43;;;2.90;;
59907;SDS011;61804;54.926;73.496;2022-08-05T01:53:51;10.88;;;2.53;;
59907;SDS011;61804;54.926;73.496;2022-08-05T01:56:36;2.95;;;2.70;;
59907;SDS011;61804;54.926;73.496;2022-08-05T01:59:07;4.35;;;3.83;;
59907;SDS011;61804;54.926;73.496;2022-08-05T02:01:38;4.32;;;3.35;;
59907;SDS011;61804;54.926;73.496;2022-08-05T02:04:08;3.95;;;2.33;;
59907;SDS011;61804;54.926;73.496;2022-08-05T02:06:37;2.92;;;2.28;;
59907;SDS011;61804;54.926;73.496;2022-08-05T02:09:11;20.35;;;5.90;;
59907;SDS011;61804;54.926;73.496;2022-08-05T02:11:44;7.70;;;3.63;;
59907;SDS011;61804;54.926;73.496;2022-08-05T02:14:24;4.97;;;2.47;;
59907;SDS011;61804;54.926;73.496;2022-08-05T02:16:54;6.05;;;3.42;;
59907;SDS011;61804;54.926;73.496;2022-08-05T02:19:35;11.88;;;6.03;;
59907;SDS011;61804;54.926;73.496;2022-08-05T02:24:45;8.02;;;2.83;;
59907;SDS011;61804;54.926;73.496;2022-08-05T02:27:23;10.32;;;3.47;;
59907;SDS011;61804;54.926;73.496;2022-08-05T02:30:00;9.38;;;4.82;;
59907;SDS011;61804;54.926;73.496;2022-08-05T02:32:30;11.07;;;5.10;;
59907;SDS011;61804;54.926;73.496;2022-08-05T02:35:19;13.35;;;7.68;;
59907;SDS011;61804;54.926;73.496;2022-08-05T02:37:52;15.40;;;6.82;;
59907;SDS011;61804;54.926;73.496;2022-08-05T02:40:23;6.13;;;4.78;;
59907;SDS011;61804;54.926;73.496;2022-08-05T02:43:10;7.03;;;5.43;;
59907;SDS011;61804;54.926;73.496;2022-08-05T02:45:42;13.25;;;8.73;;
59907;SDS011;61804;54.926;73.496;2022-08-05T02:48:19;9.10;;;7.05;;
59907;SDS011;61804;54.926;73.496;2022-08-05T02:50:54;32.47;;;11.88;;
59907;SDS011;61804;54.926;73.496;2022-08-05T02:53:25;14.43;;;6.63;;
59907;SDS011;61804;54.926;73.496;2022-08-05T02:56:00;9.40;;;5.53;;
59907;SDS011;61804;54.926;73.496;2022-08-05T02:58:38;25.02;;;9.18;;
59907;SDS011;61804;54.926;73.496;2022-08-05T03:01:11;14.13;;;5.78;;
59907;SDS011;61804;54.926;73.496;2022-08-05T03:03:57;11.07;;;4.95;;
59907;SDS011;61804;54.926;73.496;2022-08-05T03:06:30;11.50;;;4.97;;
59907;SDS011;61804;54.926;73.496;2022-08-05T03:09:04;18.85;;;9.82;;
59907;SDS011;61804;54.926;73.496;2022-08-05T03:11:39;10.10;;;5.88;;
59907;SDS011;61804;54.926;73.496;2022-08-05T03:14:08;11.90;;;5.68;;
59907;SDS011;61804;54.926;73.496;2022-08-05T03:16:41;13.60;;;4.53;;
59907;SDS011;61804;54.926;73.496;2022-08-05T03:19:11;18.30;;;4.93;;
59907;SDS011;61804;54.926;73.496;2022-08-05T03:21:43;17.77;;;5.57;;
59907;SDS011;61804;54.926;73.496;2022-08-05T03:24:15;6.13;;;3.55;;
59907;SDS011;61804;54.926;73.496;2022-08-05T03:26:44;8.50;;;2.92;;
59907;SDS011;61804;54.926;73.496;2022-08-05T03:29:26;7.35;;;2.55;;
59907;SDS011;61804;54.926;73.496;2022-08-05T03:31:56;14.82;;;3.13;;
59907;SDS011;61804;54.926;73.496;2022-08-05T03:34:41;20.73;;;4.95;;
59907;SDS011;61804;54.926;73.496;2022-08-05T03:37:24;7.22;;;3.78;;
59907;SDS011;61804;54.926;73.496;2022-08-05T03:39:58;8.93;;;3.53;;
59907;SDS011;61804;54.926;73.496;2022-08-05T03:42:29;6.68;;;3.10;;
59907;SDS011;61804;54.926;73.496;2022-08-05T03:45:03;8.27;;;5.88;;
59907;SDS011;61804;54.926;73.496;2022-08-05T03:47:43;3.63;;;2.75;;
59907;SDS011;61804;54.926;73.496;2022-08-05T03:50:15;2.13;;;2.03;;
59907;SDS011;61804;54.926;73.496;2022-08-05T03:52:57;3.75;;;2.60;;
59907;SDS011;61804;54.926;73.496;2022-08-05T03:55:48;3.58;;;2.38;;
59907;SDS011;61804;54.926;73.496;2022-08-05T03:58:16;11.73;;;3.70;;
59907;SDS011;61804;54.926;73.496;2022-08-05T04:00:50;3.22;;;1.80;;
59907;SDS011;61804;54.926;73.496;2022-08-05T04:03:25;10.43;;;3.20;;
59907;SDS011;61804;54.926;73.496;2022-08-05T04:05:53;19.45;;;5.70;;
59907;SDS011;61804;54.926;73.496;2022-08-05T04:08:21;3.35;;;2.75;;
59907;SDS011;61804;54.926;73.496;2022-08-05T04:10:58;7.35;;;4.15;;
59907;SDS011;61804;54.926;73.496;2022-08-05T04:13:30;13.70;;;2.55;;
59907;SDS011;61804;54.926;73.496;2022-08-05T04:16:11;2.63;;;2.35;;
59907;SDS011;61804;54.926;73.496;2022-08-05T04:18:43;22.95;;;6.13;;
59907;SDS011;61804;54.926;73.496;2022-08-05T04:21:14;4.53;;;2.78;;
59907;SDS011;61804;54.926;73.496;2022-08-05T04:23:50;5.32;;;2.85;;
59907;SDS011;61804;54.926;73.496;2022-08-05T04:26:27;3.80;;;2.33;;
59907;SDS011;61804;54.926;73.496;2022-08-05T04:28:58;6.28;;;2.08;;
59907;SDS011;61804;54.926;73.496;2022-08-05T04:31:28;7.03;;;2.65;;
59907;SDS011;61804;54.926;73.496;2022-08-05T04:33:56;3.03;;;2.10;;
59907;SDS011;61804;54.926;73.496;2022-08-05T04:36:24;4.93;;;1.92;;
59907;SDS011;61804;54.926;73.496;2022-08-05T04:38:52;3.75;;;2.25;;
59907;SDS011;61804;54.926;73.496;2022-08-05T04:41:21;7.15;;;2.50;;
59907;SDS011;61804;54.926;73.496;2022-08-05T04:43:54;7.35;;;3.40;;
59907;SDS011;61804;54.926;73.496;2022-08-05T04:46:21;20.90;;;4.82;;
59907;SDS011;61804;54.926;73.496;2022-08-05T04:48:53;2.40;;;1.65;;
59907;SDS011;61804;54.926;73.496;2022-08-05T04:51:22;11.52;;;2.78;;
59907;SDS011;61804;54.926;73.496;2022-08-05T04:53:49;3.53;;;2.03;;
59907;SDS011;61804;54.926;73.496;2022-08-05T04:56:17;4.10;;;2.00;;
59907;SDS011;61804;54.926;73.496;2022-08-05T04:58:44;2.83;;;2.55;;
59907;SDS011;61804;54.926;73.496;2022-08-05T05:01:17;6.18;;;2.05;;
59907;SDS011;61804;54.926;73.496;2022-08-05T05:03:45;4.38;;;2.67;;
59907;SDS011;61804;54.926;73.496;2022-08-05T05:06:13;10.43;;;2.88;;
59907;SDS011;61804;54.926;73.496;2022-08-05T05:08:41;7.05;;;2.40;;
59907;SDS011;61804;54.926;73.496;2022-08-05T05:11:12;5.63;;;2.28;;
59907;SDS011;61804;54.926;73.496;2022-08-05T05:13:40;8.18;;;2.65;;
59907;SDS011;61804;54.926;73.496;2022-08-05T05:16:17;8.13;;;2.60;;
59907;SDS011;61804;54.926;73.496;2022-08-05T05:18:47;1.98;;;1.48;;
59907;SDS011;61804;54.926;73.496;2022-08-05T05:21:24;4.22;;;1.80;;
59907;SDS011;61804;54.926;73.496;2022-08-05T05:23:52;18.33;;;4.20;;
59907;SDS011;61804;54.926;73.496;2022-08-05T05:26:21;1.83;;;1.73;;
59907;SDS011;61804;54.926;73.496;2022-08-05T05:28:49;6.55;;;2.90;;
59907;SDS011;61804;54.926;73.496;2022-08-05T05:31:23;3.30;;;1.98;;
59907;SDS011;61804;54.926;73.496;2022-08-05T05:33:51;5.57;;;2.33;;
59907;SDS011;61804;54.926;73.496;2022-08-05T05:36:22;49.15;;;10.77;;
59907;SDS011;61804;54.926;73.496;2022-08-05T05:38:52;16.10;;;3.53;;
59907;SDS011;61804;54.926;73.496;2022-08-05T05:41:21;6.50;;;3.67;;
59907;SDS011;61804;54.926;73.496;2022-08-05T05:43:48;11.57;;;4.00;;
59907;SDS011;61804;54.926;73.496;2022-08-05T05:46:15;15.43;;;4.13;;
59907;SDS011;61804;54.926;73.496;2022-08-05T05:48:56;1.95;;;1.75;;
59907;SDS011;61804;54.926;73.496;2022-08-05T05:51:28;19.13;;;4.97;;
59907;SDS011;61804;54.926;73.496;2022-08-05T05:53:56;3.67;;;1.75;;
59907;SDS011;61804;54.926;73.496;2022-08-05T05:56:28;8.45;;;6.60;;
59907;SDS011;61804;54.926;73.496;2022-08-05T05:58:56;28.05;;;9.65;;
59907;SDS011;61804;54.926;73.496;2022-08-05T06:01:23;6.53;;;3.33;;
59907;SDS011;61804;54.926;73.496;2022-08-05T06:03:51;21.38;;;5.88;;
59907;SDS011;61804;54.926;73.496;2022-08-05T06:06:18;45.42;;;10.20;;
59907;SDS011;61804;54.926;73.496;2022-08-05T06:08:56;11.25;;;4.03;;
59907;SDS011;61804;54.926;73.496;2022-08-05T06:11:23;29.15;;;8.48;;
59907;SDS011;61804;54.926;73.496;2022-08-05T06:13:50;33.05;;;9.77;;
59907;SDS011;61804;54.926;73.496;2022-08-05T06:16:19;16.02;;;6.20;;
59907;SDS011;61804;54.926;73.496;2022-08-05T06:18:50;19.05;;;5.07;;
59907;SDS011;61804;54.926;73.496;2022-08-05T06:21:17;20.45;;;5.88;;
59907;SDS011;61804;54.926;73.496;2022-08-05T06:23:44;24.33;;;8.50;;
59907;SDS011;61804;54.926;73.496;2022-08-05T06:26:13;16.10;;;4.90;;
59907;SDS011;61804;54.926;73.496;2022-08-05T06:28:40;13.73;;;4.93;;
59907;SDS011;61804;54.926;73.496;2022-08-05T06:31:08;19.10;;;5.18;;
59907;SDS011;61804;54.926;73.496;2022-08-05T06:33:35;23.10;;;7.10;;
59907;SDS011;61804;54.926;73.496;2022-08-05T06:36:02;10.23;;;3.25;;
59907;SDS011;61804;54.926;73.496;2022-08-05T06:38:30;72.22;;;12.90;;
59907;SDS011;61804;54.926;73.496;2022-08-05T06:40:58;34.35;;;9.20;;
59907;SDS011;61804;54.926;73.496;2022-08-05T06:43:27;53.05;;;12.32;;
59907;SDS011;61804;54.926;73.496;2022-08-05T06:45:54;23.35;;;6.28;;
59907;SDS011;61804;54.926;73.496;2022-08-05T06:48:21;50.47;;;8.52;;
59907;SDS011;61804;54.926;73.496;2022-08-05T06:50:49;16.80;;;4.78;;
59907;SDS011;61804;54.926;73.496;2022-08-05T06:53:32;20.65;;;6.00;;
59907;SDS011;61804;54.926;73.496;2022-08-05T06:56:01;23.13;;;7.32;;
59907;SDS011;61804;54.926;73.496;2022-08-05T06:58:51;75.95;;;13.23;;
59907;SDS011;61804;54.926;73.496;2022-08-05T07:01:51;33.35;;;7.63;;
59907;SDS011;61804;54.926;73.496;2022-08-05T07:04:29;14.80;;;6.00;;
59907;SDS011;61804;54.926;73.496;2022-08-05T07:07:09;19.70;;;6.90;;
59907;SDS011;61804;54.926;73.496;2022-08-05T07:09:58;26.33;;;6.85;;
59907;SDS011;61804;54.926;73.496;2022-08-05T07:12:32;12.88;;;4.93;;
59907;SDS011;61804;54.926;73.496;2022-08-05T07:15:28;33.15;;;9.13;;
59907;SDS011;61804;54.926;73.496;2022-08-05T07:18:35;36.75;;;6.47;;
59907;SDS011;61804;54.926;73.496;2022-08-05T07:21:04;20.48;;;4.88;;
59907;SDS011;61804;54.926;73.496;2022-08-05T07:23:33;16.95;;;5.55;;
59907;SDS011;61804;54.926;73.496;2022-08-05T07:26:04;10.38;;;4.93;;
59907;SDS011;61804;54.926;73.496;2022-08-05T07:28:37;14.23;;;4.15;;
59907;SDS011;61804;54.926;73.496;2022-08-05T07:31:07;11.77;;;4.07;;
59907;SDS011;61804;54.926;73.496;2022-08-05T07:33:47;11.70;;;4.05;;
59907;SDS011;61804;54.926;73.496;2022-08-05T07:36:28;28.95;;;7.25;;
59907;SDS011;61804;54.926;73.496;2022-08-05T07:39:05;18.90;;;5.40;;
59907;SDS011;61804;54.926;73.496;2022-08-05T07:41:47;11.52;;;5.47;;
59907;SDS011;61804;54.926;73.496;2022-08-05T07:44:15;46.13;;;11.00;;
59907;SDS011;61804;54.926;73.496;2022-08-05T07:46:48;26.88;;;6.72;;
59907;SDS011;61804;54.926;73.496;2022-08-05T07:49:21;40.63;;;11.90;;
59907;SDS011;61804;54.926;73.496;2022-08-05T07:51:48;20.45;;;6.63;;
59907;SDS011;61804;54.926;73.496;2022-08-05T07:54:21;28.48;;;6.65;;
59907;SDS011;61804;54.926;73.496;2022-08-05T07:56:57;20.13;;;7.38;;
59907;SDS011;61804;54.926;73.496;2022-08-05T07:59:27;7.53;;;3.65;;
59907;SDS011;61804;54.926;73.496;2022-08-05T08:01:56;15.27;;;3.65;;
59907;SDS011;61804;54.926;73.496;2022-08-05T08:04:31;17.23;;;4.07;;
59907;SDS011;61804;54.926;73.496;2022-08-05T08:07:12;19.67;;;6.97;;
59907;SDS011;61804;54.926;73.496;2022-08-05T08:09:39;21.27;;;6.60;;
59907;SDS011;61804;54.926;73.496;2022-08-05T08:12:15;2.17;;;2.03;;
59907;SDS011;61804;54.926;73.496;2022-08-05T08:14:47;8.30;;;3.83;;
59907;SDS011;61804;54.926;73.496;2022-08-05T08:17:18;29.17;;;6.72;;
59907;SDS011;61804;54.926;73.496;2022-08-05T08:19:50;26.60;;;6.10;;
59907;SDS011;61804;54.926;73.496;2022-08-05T08:22:24;16.50;;;5.43;;
59907;SDS011;61804;54.926;73.496;2022-08-05T08:24:53;37.38;;;10.32;;
59907;SDS011;61804;54.926;73.496;2022-08-05T08:27:24;15.93;;;6.50;;
59907;SDS011;61804;54.926;73.496;2022-08-05T08:29:52;27.00;;;7.90;;
59907;SDS011;61804;54.926;73.496;2022-08-05T08:32:19;23.23;;;5.05;;
59907;SDS011;61804;54.926;73.496;2022-08-05T08:34:49;27.45;;;6.65;;
59907;SDS011;61804;54.926;73.496;2022-08-05T08:37:17;12.40;;;5.55;;
59907;SDS011;61804;54.926;73.496;2022-08-05T08:39:45;10.07;;;3.25;;
59907;SDS011;61804;54.926;73.496;2022-08-05T08:42:12;4.13;;;1.50;;
59907;SDS011;61804;54.926;73.496;2022-08-05T08:44:41;7.03;;;2.33;;
59907;SDS011;61804;54.926;73.496;2022-08-05T08:47:09;10.18;;;4.10;;
59907;SDS011;61804;54.926;73.496;2022-08-05T08:49:37;19.25;;;5.78;;
59907;SDS011;61804;54.926;73.496;2022-08-05T08:52:10;18.58;;;6.85;;
59907;SDS011;61804;54.926;73.496;2022-08-05T08:54:38;12.70;;;5.40;;
59907;SDS011;61804;54.926;73.496;2022-08-05T08:57:06;35.05;;;7.22;;
59907;SDS011;61804;54.926;73.496;2022-08-05T08:59:34;12.73;;;3.67;;
59907;SDS011;61804;54.926;73.496;2022-08-05T09:02:12;6.20;;;3.92;;
59907;SDS011;61804;54.926;73.496;2022-08-05T09:04:40;6.93;;;2.40;;
59907;SDS011;61804;54.926;73.496;2022-08-05T09:07:07;11.23;;;4.18;;
59907;SDS011;61804;54.926;73.496;2022-08-05T09:09:41;15.10;;;3.88;;
59907;SDS011;61804;54.926;73.496;2022-08-05T09:12:11;29.77;;;5.15;;
59907;SDS011;61804;54.926;73.496;2022-08-05T09:14:38;30.50;;;7.30;;
59907;SDS011;61804;54.926;73.496;2022-08-05T09:17:07;28.92;;;6.20;;
59907;SDS011;61804;54.926;73.496;2022-08-05T09:19:35;9.18;;;4.15;;
59907;SDS011;61804;54.926;73.496;2022-08-05T09:22:03;23.52;;;6.00;;
59907;SDS011;61804;54.926;73.496;2022-08-05T09:24:30;32.90;;;6.05;;
59907;SDS011;61804;54.926;73.496;2022-08-05T09:26:58;17.27;;;5.45;;
59907;SDS011;61804;54.926;73.496;2022-08-05T09:32:06;11.02;;;3.35;;
59907;SDS011;61804;54.926;73.496;2022-08-05T09:34:51;10.25;;;3.67;;
59907;SDS011;61804;54.926;73.496;2022-08-05T09:37:24;7.50;;;2.88;;
59907;SDS011;61804;54.926;73.496;2022-08-05T09:39:54;2.78;;;2.30;;
59907;SDS011;61804;54.926;73.496;2022-08-05T09:42:38;8.45;;;2.58;;
59907;SDS011;61804;54.926;73.496;2022-08-05T09:45:15;11.85;;;4.30;;
59907;SDS011;61804;54.926;73.496;2022-08-05T09:47:42;27.58;;;7.38;;
59907;SDS011;61804;54.926;73.496;2022-08-05T09:50:10;16.52;;;3.33;;
59907;SDS011;61804;54.926;73.496;2022-08-05T09:52:37;8.57;;;4.90;;
59907;SDS011;61804;54.926;73.496;2022-08-05T09:55:07;28.08;;;9.13;;
59907;SDS011;61804;54.926;73.496;2022-08-05T09:57:45;14.60;;;4.55;;
59907;SDS011;61804;54.926;73.496;2022-08-05T10:00:18;8.88;;;3.53;;
59907;SDS011;61804;54.926;73.496;2022-08-05T10:02:46;3.45;;;2.40;;
59907;SDS011;61804;54.926;73.496;2022-08-05T10:05:27;5.47;;;3.28;;
59907;SDS011;61804;54.926;73.496;2022-08-05T10:08:02;6.07;;;1.95;;
59907;SDS011;61804;54.926;73.496;2022-08-05T10:12:58;9.52;;;2.60;;
59907;SDS011;61804;54.926;73.496;2022-08-05T10:15:38;3.20;;;2.63;;
59907;SDS011;61804;54.926;73.496;2022-08-05T10:18:18;5.43;;;3.05;;
59907;SDS011;61804;54.926;73.496;2022-08-05T10:20:51;37.92;;;9.15;;
59907;SDS011;61804;54.926;73.496;2022-08-05T10:23:28;14.32;;;4.75;;
59907;SDS011;61804;54.926;73.496;2022-08-05T10:25:57;6.65;;;3.28;;
59907;SDS011;61804;54.926;73.496;2022-08-05T10:28:25;12.07;;;3.42;;
59907;SDS011;61804;54.926;73.496;2022-08-05T10:30:53;3.05;;;2.53;;
59907;SDS011;61804;54.926;73.496;2022-08-05T10:33:23;10.65;;;2.85;;
59907;SDS011;61804;54.926;73.496;2022-08-05T10:35:51;11.48;;;3.88;;
59907;SDS011;61804;54.926;73.496;2022-08-05T10:38:21;6.90;;;3.13;;
59907;SDS011;61804;54.926;73.496;2022-08-05T10:40:53;11.48;;;4.50;;
59907;SDS011;61804;54.926;73.496;2022-08-05T10:45:58;8.90;;;3.28;;
59907;SDS011;61804;54.926;73.496;2022-08-05T10:48:27;25.38;;;5.05;;
59907;SDS011;61804;54.926;73.496;2022-08-05T10:51:06;23.05;;;5.57;;
59907;SDS011;61804;54.926;73.496;2022-08-05T10:53:44;33.78;;;7.70;;
59907;SDS011;61804;54.926;73.496;2022-08-05T10:56:20;19.42;;;5.63;;
59907;SDS011;61804;54.926;73.496;2022-08-05T11:01:40;5.07;;;2.55;;
59907;SDS011;61804;54.926;73.496;2022-08-05T11:04:14;16.65;;;3.63;;
59907;SDS011;61804;54.926;73.496;2022-08-05T11:09:27;25.90;;;4.35;;
59907;SDS011;61804;54.926;73.496;2022-08-05T11:12:02;15.38;;;3.70;;
59907;SDS011;61804;54.926;73.496;2022-08-05T11:14:33;16.52;;;4.03;;
59907;SDS011;61804;54.926;73.496;2022-08-05T11:20:00;22.15;;;3.55;;
59907;SDS011;61804;54.926;73.496;2022-08-05T11:22:47;13.13;;;3.22;;
59907;SDS011;61804;54.926;73.496;2022-08-05T11:25:31;11.25;;;2.95;;
59907;SDS011;61804;54.926;73.496;2022-08-05T11:36:42;3.13;;;1.85;;
59907;SDS011;61804;54.926;73.496;2022-08-05T11:39:10;10.95;;;3.42;;
59907;SDS011;61804;54.926;73.496;2022-08-05T11:41:39;13.68;;;4.50;;
59907;SDS011;61804;54.926;73.496;2022-08-05T11:44:08;10.45;;;3.35;;
59907;SDS011;61804;54.926;73.496;2022-08-05T11:46:41;17.58;;;4.88;;
59907;SDS011;61804;54.926;73.496;2022-08-05T11:49:12;3.58;;;1.52;;
59907;SDS011;61804;54.926;73.496;2022-08-05T11:51:40;21.73;;;4.65;;
59907;SDS011;61804;54.926;73.496;2022-08-05T11:54:12;10.05;;;4.03;;
59907;SDS011;61804;54.926;73.496;2022-08-05T11:56:45;37.10;;;9.25;;
59907;SDS011;61804;54.926;73.496;2022-08-05T11:59:20;10.02;;;4.43;;
59907;SDS011;61804;54.926;73.496;2022-08-05T12:01:51;18.80;;;5.07;;
59907;SDS011;61804;54.926;73.496;2022-08-05T12:04:42;64.60;;;15.43;;
59907;SDS011;61804;54.926;73.496;2022-08-05T12:07:12;38.55;;;9.07;;
59907;SDS011;61804;54.926;73.496;2022-08-05T12:09:41;28.88;;;6.75;;
59907;SDS011;61804;54.926;73.496;2022-08-05T12:12:08;24.05;;;4.88;;
59907;SDS011;61804;54.926;73.496;2022-08-05T12:14:38;13.57;;;4.70;;
59907;SDS011;61804;54.926;73.496;2022-08-05T12:17:13;5.47;;;2.90;;
59907;SDS011;61804;54.926;73.496;2022-08-05T12:19:43;8.98;;;3.35;;
59907;SDS011;61804;54.926;73.496;2022-08-05T12:22:12;20.33;;;4.88;;
59907;SDS011;61804;54.926;73.496;2022-08-05T12:24:41;16.30;;;4.78;;
59907;SDS011;61804;54.926;73.496;2022-08-05T12:27:09;6.40;;;3.05;;
59907;SDS011;61804;54.926;73.496;2022-08-05T12:29:42;17.30;;;2.72;;
59907;SDS011;61804;54.926;73.496;2022-08-05T12:32:09;11.90;;;5.28;;
59907;SDS011;61804;54.926;73.496;2022-08-05T12:34:38;33.78;;;6.55;;
59907;SDS011;61804;54.926;73.496;2022-08-05T12:37:07;18.02;;;7.47;;
59907;SDS011;61804;54.926;73.496;2022-08-05T12:39:38;54.22;;;10.23;;
59907;SDS011;61804;54.926;73.496;2022-08-05T12:42:15;38.88;;;10.57;;
59907;SDS011;61804;54.926;73.496;2022-08-05T12:44:48;21.70;;;5.77;;
59907;SDS011;61804;54.926;73.496;2022-08-05T12:47:26;23.30;;;4.40;;
59907;SDS011;61804;54.926;73.496;2022-08-05T12:49:55;29.58;;;4.75;;
59907;SDS011;61804;54.926;73.496;2022-08-05T12:52:23;31.20;;;4.85;;
59907;SDS011;61804;54.926;73.496;2022-08-05T12:54:53;37.88;;;7.03;;
59907;SDS011;61804;54.926;73.496;2022-08-05T12:57:26;31.00;;;7.38;;
59907;SDS011;61804;54.926;73.496;2022-08-05T13:00:01;18.77;;;6.55;;
59907;SDS011;61804;54.926;73.496;2022-08-05T13:02:29;9.20;;;3.22;;
59907;SDS011;61804;54.926;73.496;2022-08-05T13:04:57;36.00;;;6.45;;
59907;SDS011;61804;54.926;73.496;2022-08-05T13:07:25;2.88;;;2.28;;
59907;SDS011;61804;54.926;73.496;2022-08-05T13:09:55;8.38;;;3.08;;
59907;SDS011;61804;54.926;73.496;2022-08-05T13:12:24;11.75;;;4.32;;
59907;SDS011;61804;54.926;73.496;2022-08-05T13:14:55;14.30;;;3.97;;
59907;SDS011;61804;54.926;73.496;2022-08-05T13:17:23;34.15;;;8.00;;
59907;SDS011;61804;54.926;73.496;2022-08-05T13:20:00;20.98;;;4.88;;
59907;SDS011;61804;54.926;73.496;2022-08-05T13:22:31;23.08;;;5.32;;
59907;SDS011;61804;54.926;73.496;2022-08-05T13:25:01;14.00;;;4.60;;
59907;SDS011;61804;54.926;73.496;2022-08-05T13:27:38;12.60;;;3.28;;
59907;SDS011;61804;54.926;73.496;2022-08-05T13:30:07;16.40;;;4.15;;
59907;SDS011;61804;54.926;73.496;2022-08-05T13:32:37;25.13;;;3.95;;
59907;SDS011;61804;54.926;73.496;2022-08-05T13:35:05;15.27;;;4.68;;
59907;SDS011;61804;54.926;73.496;2022-08-05T13:37:34;14.38;;;4.95;;
59907;SDS011;61804;54.926;73.496;2022-08-05T13:40:02;9.10;;;4.28;;
59907;SDS011;61804;54.926;73.496;2022-08-05T13:42:36;29.83;;;8.15;;
59907;SDS011;61804;54.926;73.496;2022-08-05T13:45:11;21.63;;;6.88;;
59907;SDS011;61804;54.926;73.496;2022-08-05T13:47:41;16.40;;;5.40;;
59907;SDS011;61804;54.926;73.496;2022-08-05T13:50:11;17.02;;;7.18;;
59907;SDS011;61804;54.926;73.496;2022-08-05T13:52:51;12.10;;;4.82;;
59907;SDS011;61804;54.926;73.496;2022-08-05T13:55:24;11.75;;;4.07;;
59907;SDS011;61804;54.926;73.496;2022-08-05T13:57:55;21.63;;;7.03;;
59907;SDS011;61804;54.926;73.496;2022-08-05T14:00:25;7.20;;;3.38;;
59907;SDS011;61804;54.926;73.496;2022-08-05T14:02:56;5.95;;;3.42;;
59907;SDS011;61804;54.926;73.496;2022-08-05T14:05:30;22.33;;;5.45;;
59907;SDS011;61804;54.926;73.496;2022-08-05T14:07:58;33.47;;;10.75;;
59907;SDS011;61804;54.926;73.496;2022-08-05T14:10:27;46.75;;;9.32;;
59907;SDS011;61804;54.926;73.496;2022-08-05T14:12:55;36.88;;;9.00;;
59907;SDS011;61804;54.926;73.496;2022-08-05T14:15:23;25.40;;;4.60;;
59907;SDS011;61804;54.926;73.496;2022-08-05T14:17:53;24.70;;;4.93;;
59907;SDS011;61804;54.926;73.496;2022-08-05T14:20:29;33.10;;;6.60;;
59907;SDS011;61804;54.926;73.496;2022-08-05T14:23:02;33.88;;;8.75;;
59907;SDS011;61804;54.926;73.496;2022-08-05T14:25:30;27.42;;;7.18;;
59907;SDS011;61804;54.926;73.496;2022-08-05T14:28:04;27.77;;;8.25;;
59907;SDS011;61804;54.926;73.496;2022-08-05T14:30:36;16.65;;;4.20;;
59907;SDS011;61804;54.926;73.496;2022-08-05T14:33:14;28.00;;;8.27;;
59907;SDS011;61804;54.926;73.496;2022-08-05T14:35:53;25.15;;;7.82;;
59907;SDS011;61804;54.926;73.496;2022-08-05T14:38:21;30.88;;;7.32;;
59907;SDS011;61804;54.926;73.496;2022-08-05T14:40:51;26.17;;;6.80;;
59907;SDS011;61804;54.926;73.496;2022-08-05T14:43:35;34.28;;;8.52;;
59907;SDS011;61804;54.926;73.496;2022-08-05T14:46:04;27.67;;;7.55;;
59907;SDS011;61804;54.926;73.496;2022-08-05T14:48:35;55.53;;;11.23;;
59907;SDS011;61804;54.926;73.496;2022-08-05T14:51:03;36.35;;;9.07;;
59907;SDS011;61804;54.926;73.496;2022-08-05T14:53:35;33.03;;;9.13;;
59907;SDS011;61804;54.926;73.496;2022-08-05T14:56:25;61.90;;;11.20;;
59907;SDS011;61804;54.926;73.496;2022-08-05T14:58:59;60.42;;;12.68;;
59907;SDS011;61804;54.926;73.496;2022-08-05T15:04:03;28.35;;;8.20;;
59907;SDS011;61804;54.926;73.496;2022-08-05T15:06:45;69.20;;;13.05;;
59907;SDS011;61804;54.926;73.496;2022-08-05T15:09:31;60.58;;;13.73;;
59907;SDS011;61804;54.926;73.496;2022-08-05T15:12:03;75.60;;;16.25;;
59907;SDS011;61804;54.926;73.496;2022-08-05T15:14:36;109.07;;;18.63;;
59907;SDS011;61804;54.926;73.496;2022-08-05T15:17:05;112.93;;;23.13;;
59907;SDS011;61804;54.926;73.496;2022-08-05T15:19:35;118.03;;;34.75;;
59907;SDS011;61804;54.926;73.496;2022-08-05T15:22:06;124.50;;;38.17;;
59907;SDS011;61804;54.926;73.496;2022-08-05T15:24:43;110.50;;;47.58;;
59907;SDS011;61804;54.926;73.496;2022-08-05T15:27:17;110.47;;;61.03;;
59907;SDS011;61804;54.926;73.496;2022-08-05T15:29:49;217.52;;;115.82;;
59907;SDS011;61804;54.926;73.496;2022-08-05T15:35:08;140.85;;;74.20;;
59907;SDS011;61804;54.926;73.496;2022-08-05T15:37:50;159.52;;;83.10;;
59907;SDS011;61804;54.926;73.496;2022-08-05T15:40:39;150.32;;;62.08;;
59907;SDS011;61804;54.926;73.496;2022-08-05T15:43:30;138.88;;;51.58;;